createdAt,value
2023-08-17T00:00:23.374Z,20.96
2023-08-17T00:03:25.810Z,21.03
2023-08-17T00:06:28.326Z,20.88
2023-08-17T00:09:30.823Z,20.69
2023-08-17T00:12:33.369Z,20.69
2023-08-17T00:15:35.868Z,20.81
2023-08-17T00:18:38.274Z,20.62
2023-08-17T00:21:40.631Z,20.43
2023-08-17T00:24:45.507Z,20.12
2023-08-17T00:27:47.890Z,20.19
2023-08-17T00:30:53.392Z,20.01
2023-08-17T00:33:55.849Z,20.03
2023-08-17T00:36:58.205Z,19.99
2023-08-17T00:40:00.703Z,20.04
2023-08-17T00:43:03.161Z,19.68
2023-08-17T00:46:05.962Z,19.80
2023-08-17T00:49:11.157Z,19.84
2023-08-17T00:52:13.674Z,19.69
2023-08-17T00:55:18.575Z,19.52
2023-08-17T00:58:22.426Z,19.48
2023-08-17T01:01:25.242Z,19.49
2023-08-17T01:04:27.660Z,19.55
2023-08-17T01:07:30.159Z,19.51
2023-08-17T01:10:46.068Z,19.42
2023-08-17T01:14:03.689Z,18.93
2023-08-17T01:17:18.909Z,19.16
2023-08-17T01:20:24.273Z,19.11
2023-08-17T01:23:26.734Z,19.22
2023-08-17T01:26:29.135Z,19.41
2023-08-17T01:29:31.846Z,19.43
2023-08-17T01:32:44.846Z,19.49
2023-08-17T01:36:13.769Z,19.44
2023-08-17T01:39:18.079Z,19.68
2023-08-17T01:42:21.813Z,19.52
2023-08-17T01:45:24.365Z,19.49
2023-08-17T01:48:26.726Z,19.29
2023-08-17T01:51:29.152Z,19.42
2023-08-17T01:54:31.645Z,19.51
2023-08-17T01:57:34.031Z,19.45
2023-08-17T02:00:36.421Z,19.54
2023-08-17T02:03:38.870Z,19.37
2023-08-17T02:06:41.337Z,19.47
2023-08-17T02:09:44.256Z,19.59
2023-08-17T02:12:48.121Z,19.75
2023-08-17T02:15:50.537Z,19.81
2023-08-17T02:18:52.995Z,19.71
2023-08-17T02:21:55.401Z,19.65
2023-08-17T02:24:57.878Z,19.76
2023-08-17T02:28:01.106Z,19.79
2023-08-17T02:31:03.561Z,19.86
2023-08-17T02:34:06.597Z,19.82
2023-08-17T02:37:09.104Z,19.71
2023-08-17T02:40:11.925Z,19.67
2023-08-17T02:43:14.328Z,19.58
2023-08-17T02:46:16.716Z,19.48
2023-08-17T02:49:19.852Z,19.41
2023-08-17T02:52:22.220Z,19.58
2023-08-17T02:55:24.753Z,19.46
2023-08-17T02:58:27.180Z,19.34
2023-08-17T03:01:31.075Z,19.30
2023-08-17T03:04:34.087Z,19.17
2023-08-17T03:07:36.501Z,19.28
2023-08-17T03:10:39.416Z,19.19
2023-08-17T03:13:41.795Z,19.39
2023-08-17T03:16:44.208Z,19.34
2023-08-17T03:19:46.656Z,19.35
2023-08-17T03:22:49.086Z,19.34
2023-08-17T03:25:55.441Z,19.43
2023-08-17T03:28:58.422Z,19.26
2023-08-17T03:32:00.851Z,19.20
2023-08-17T03:35:03.470Z,19.26
2023-08-17T03:38:05.857Z,19.39
2023-08-17T03:41:08.524Z,19.40
2023-08-17T03:44:11.175Z,19.44
2023-08-17T03:47:13.526Z,19.31
2023-08-17T03:50:15.941Z,19.39
2023-08-17T03:53:18.329Z,19.56
2023-08-17T03:56:20.740Z,19.62
2023-08-17T03:59:23.208Z,19.62
2023-08-17T04:02:26.424Z,19.52
2023-08-17T04:05:29.051Z,19.96
2023-08-17T04:08:31.492Z,20.10
2023-08-17T04:11:36.578Z,19.95
2023-08-17T04:14:38.966Z,19.88
2023-08-17T04:17:41.426Z,19.99
2023-08-17T04:20:43.860Z,19.95
2023-08-17T04:23:46.506Z,20.16
2023-08-17T04:26:48.913Z,20.10
2023-08-17T04:29:51.467Z,20.19
2023-08-17T04:32:54.895Z,20.25
2023-08-17T04:35:57.309Z,20.15
2023-08-17T04:38:59.924Z,20.22
2023-08-17T04:42:04.246Z,20.42
2023-08-17T04:45:09.759Z,20.32
2023-08-17T04:48:15.909Z,20.37
2023-08-17T04:51:19.309Z,20.38
2023-08-17T04:54:21.725Z,20.45
2023-08-17T04:57:24.483Z,20.38
2023-08-17T05:00:31.661Z,20.58
2023-08-17T05:03:34.863Z,20.62
2023-08-17T05:06:39.699Z,20.83
2023-08-17T05:09:42.148Z,20.79
2023-08-17T05:12:44.787Z,20.80
2023-08-17T05:15:47.934Z,21.04
2023-08-17T05:18:51.101Z,21.16
2023-08-17T05:21:54.851Z,21.21
2023-08-17T05:24:57.908Z,21.33
2023-08-17T05:28:00.509Z,21.26
2023-08-17T05:31:07.221Z,21.22
2023-08-17T05:34:12.444Z,21.47
2023-08-17T05:37:16.706Z,21.77
2023-08-17T05:40:19.385Z,21.85
2023-08-17T05:43:21.773Z,21.99
2023-08-17T05:46:24.175Z,22.42
2023-08-17T05:49:26.585Z,22.48
2023-08-17T05:52:29.108Z,22.79
2023-08-17T05:55:31.511Z,23.12
2023-08-17T05:58:33.946Z,23.47
2023-08-17T06:01:37.131Z,23.51
2023-08-17T06:04:39.535Z,23.56
2023-08-17T06:07:42.082Z,23.84
2023-08-17T06:10:44.453Z,24.17
2023-08-17T06:13:46.841Z,24.20
2023-08-17T06:16:49.377Z,24.02
2023-08-17T06:19:51.890Z,24.26
2023-08-17T06:22:54.252Z,24.12
2023-08-17T06:25:59.928Z,23.88
2023-08-17T06:29:04.368Z,23.71
2023-08-17T06:32:07.546Z,23.60
2023-08-17T06:35:10.182Z,23.38
2023-08-17T06:38:13.183Z,23.54
2023-08-17T06:41:15.600Z,23.75
2023-08-17T06:44:18.015Z,23.88
2023-08-17T06:47:20.370Z,24.07
2023-08-17T06:50:22.775Z,24.29
2023-08-17T06:53:25.146Z,24.91
2023-08-17T06:56:27.520Z,25.93
2023-08-17T06:59:29.908Z,28.46
2023-08-17T07:02:46.606Z,30.55
2023-08-17T07:05:53.607Z,30.88
2023-08-17T07:08:56.190Z,29.49
2023-08-17T07:11:58.644Z,27.90
2023-08-17T07:15:01.075Z,27.81
2023-08-17T07:18:03.658Z,27.56
2023-08-17T07:21:06.058Z,27.60
2023-08-17T07:24:16.135Z,27.20
2023-08-17T07:27:18.511Z,26.75
2023-08-17T07:30:20.948Z,26.43
2023-08-17T07:33:23.413Z,25.94
2023-08-17T07:36:25.772Z,25.34
2023-08-17T07:39:28.268Z,24.89
2023-08-17T07:42:30.762Z,24.42
2023-08-17T07:45:33.218Z,24.10
2023-08-17T07:48:35.611Z,23.86
2023-08-17T07:51:37.987Z,24.29
2023-08-17T07:54:40.398Z,24.37
2023-08-17T07:57:42.794Z,24.86
2023-08-17T08:00:45.177Z,24.98
2023-08-17T08:03:47.774Z,24.83
2023-08-17T08:06:50.135Z,24.40
2023-08-17T08:09:52.490Z,24.07
2023-08-17T08:12:55.419Z,23.73
2023-08-17T08:15:59.882Z,23.45
2023-08-17T08:19:02.632Z,23.25
2023-08-17T08:22:05.117Z,23.46
2023-08-17T08:25:07.867Z,23.44
2023-08-17T08:28:10.429Z,23.53
2023-08-17T08:31:13.023Z,23.67
2023-08-17T08:34:15.565Z,24.05
2023-08-17T08:37:17.970Z,24.12
2023-08-17T08:40:21.312Z,23.89
2023-08-17T08:43:24.373Z,23.69
2023-08-17T08:46:31.088Z,23.67
2023-08-17T08:49:42.203Z,23.89
2023-08-17T08:53:07.362Z,23.56
2023-08-17T08:56:13.785Z,23.56
2023-08-17T08:59:17.887Z,23.07
2023-08-17T09:02:20.450Z,23.07
2023-08-17T09:05:23.535Z,22.92
2023-08-17T09:08:31.297Z,22.91
2023-08-17T09:11:33.682Z,22.89
2023-08-17T09:14:38.342Z,22.81
2023-08-17T09:17:40.860Z,23.01
2023-08-17T09:20:48.816Z,23.12
2023-08-17T09:27:01.619Z,23.29
2023-08-17T09:30:10.604Z,23.72
2023-08-17T09:33:13.020Z,23.97
2023-08-17T09:36:15.454Z,24.36
2023-08-17T09:39:19.196Z,24.26
2023-08-17T09:42:23.748Z,24.48
2023-08-17T09:45:28.652Z,24.71
2023-08-17T09:48:33.387Z,25.03
2023-08-17T09:51:36.283Z,25.44
2023-08-17T09:54:39.617Z,25.13
2023-08-17T09:57:43.161Z,25.22
2023-08-17T10:00:51.485Z,25.30
2023-08-17T10:03:56.757Z,25.48
2023-08-17T10:07:05.042Z,25.71
2023-08-17T10:10:08.517Z,25.87
2023-08-17T10:13:14.489Z,26.00
2023-08-17T10:16:34.524Z,25.71
2023-08-17T10:19:53.191Z,25.63
2023-08-17T10:23:02.124Z,25.19
2023-08-17T10:26:05.949Z,24.90
2023-08-17T10:29:15.472Z,25.08
2023-08-17T10:32:19.776Z,25.04
2023-08-17T10:35:22.489Z,24.78
2023-08-17T10:38:25.204Z,24.99
2023-08-17T10:41:27.625Z,24.85
2023-08-17T10:44:42.569Z,25.03
2023-08-17T10:47:45.125Z,25.12
2023-08-17T10:51:03.470Z,25.34
2023-08-17T10:54:06.536Z,25.07
2023-08-17T10:57:33.573Z,25.52
2023-08-17T11:00:37.649Z,25.69
2023-08-17T11:03:42.472Z,26.23
2023-08-17T11:06:46.249Z,26.34
2023-08-17T11:09:48.880Z,26.81
2023-08-17T11:12:57.929Z,27.26
2023-08-17T11:16:04.611Z,26.96
2023-08-17T11:19:13.614Z,26.88
2023-08-17T11:22:19.942Z,28.34
2023-08-17T11:25:22.747Z,27.81
2023-08-17T11:28:25.490Z,27.61
2023-08-17T11:31:27.914Z,27.37
2023-08-17T11:34:30.817Z,27.57
2023-08-17T11:37:34.004Z,28.64
2023-08-17T11:40:37.257Z,29.59
2023-08-17T11:43:39.633Z,32.13
2023-08-17T11:46:42.207Z,31.80
2023-08-17T11:49:48.311Z,31.66
2023-08-17T11:52:50.740Z,31.14
2023-08-17T11:55:56.285Z,30.66
2023-08-17T11:58:59.625Z,30.13
2023-08-17T12:02:02.088Z,29.86
2023-08-17T12:05:08.616Z,29.30
2023-08-17T12:08:11.340Z,28.94
2023-08-17T12:11:13.855Z,28.32
2023-08-17T12:14:16.326Z,28.41
2023-08-17T12:17:20.277Z,28.17
2023-08-17T12:20:23.042Z,27.88
2023-08-17T12:23:25.552Z,27.81
2023-08-17T12:26:28.826Z,27.76
2023-08-17T12:29:31.258Z,27.42
2023-08-17T12:32:33.662Z,27.50
2023-08-17T12:35:36.164Z,27.56
2023-08-17T12:38:43.162Z,27.35
2023-08-17T12:41:45.587Z,27.24
2023-08-17T12:44:47.951Z,27.37
2023-08-17T12:47:50.335Z,27.15
2023-08-17T12:50:52.759Z,27.06
2023-08-17T12:53:55.292Z,26.88
2023-08-17T12:56:59.507Z,26.83
2023-08-17T13:00:02.652Z,26.58
2023-08-17T13:03:05.550Z,26.34
2023-08-17T13:06:08.846Z,26.32
2023-08-17T13:09:12.315Z,26.23
2023-08-17T13:12:14.786Z,26.16
2023-08-17T13:15:17.322Z,26.58
2023-08-17T13:18:19.848Z,26.84
2023-08-17T13:21:22.208Z,27.31
2023-08-17T13:24:24.703Z,27.50
2023-08-17T13:27:27.201Z,27.80
2023-08-17T13:30:29.720Z,27.78
2023-08-17T13:33:32.275Z,27.85
2023-08-17T13:36:34.858Z,28.16
2023-08-17T13:39:37.263Z,27.87
2023-08-17T13:42:39.607Z,27.65
2023-08-17T13:45:42.121Z,27.48
2023-08-17T13:48:44.523Z,27.37
2023-08-17T13:51:46.896Z,27.65
2023-08-17T13:54:49.568Z,27.39
2023-08-17T13:57:53.972Z,27.23
2023-08-17T14:00:56.434Z,27.12
2023-08-17T14:03:58.896Z,26.83
2023-08-17T14:07:01.309Z,26.97
2023-08-17T14:10:09.024Z,27.13
2023-08-17T14:13:13.250Z,27.18
2023-08-17T14:16:15.770Z,27.87
2023-08-17T14:19:18.158Z,28.66
2023-08-17T14:22:20.560Z,28.35
2023-08-17T14:25:24.067Z,28.19
2023-08-17T14:28:27.703Z,27.79
2023-08-17T14:31:30.442Z,27.63
2023-08-17T14:34:32.860Z,27.60
2023-08-17T14:37:35.566Z,27.73
2023-08-17T14:40:42.793Z,27.71
2023-08-17T14:43:45.533Z,27.61
2023-08-17T14:46:47.916Z,27.40
2023-08-17T14:49:50.266Z,27.38
2023-08-17T14:52:52.671Z,27.30
2023-08-17T14:55:55.384Z,27.31
2023-08-17T14:58:57.847Z,27.24
2023-08-17T15:02:00.230Z,27.27
2023-08-17T15:05:02.777Z,27.38
2023-08-17T15:08:05.564Z,27.38
2023-08-17T15:11:07.984Z,27.26
2023-08-17T15:14:16.146Z,27.24
2023-08-17T15:17:18.921Z,27.27
2023-08-17T15:20:21.336Z,27.19
2023-08-17T15:23:23.691Z,27.29
2023-08-17T15:26:26.087Z,27.13
2023-08-17T15:29:28.676Z,27.08
2023-08-17T15:32:31.367Z,27.15
2023-08-17T15:35:33.767Z,27.01
2023-08-17T15:38:36.144Z,26.89
2023-08-17T15:41:38.608Z,26.95
2023-08-17T15:44:40.983Z,26.86
2023-08-17T15:47:43.333Z,26.78
2023-08-17T15:50:45.683Z,26.62
2023-08-17T15:53:48.046Z,26.68
2023-08-17T15:56:50.782Z,26.58
2023-08-17T15:59:53.541Z,26.46
2023-08-17T16:02:55.959Z,26.21
2023-08-17T16:05:58.506Z,26.05
2023-08-17T16:09:00.946Z,26.08
2023-08-17T16:12:03.610Z,26.10
2023-08-17T16:15:06.663Z,26.18
2023-08-17T16:18:09.142Z,26.14
2023-08-17T16:24:16.897Z,25.93
2023-08-17T16:27:19.278Z,25.60
2023-08-17T16:30:21.833Z,25.66
2023-08-17T16:33:24.528Z,25.47
2023-08-17T16:36:27.259Z,25.44
2023-08-17T16:39:29.877Z,25.49
2023-08-17T16:42:32.441Z,25.51
2023-08-17T16:45:35.094Z,25.22
2023-08-17T16:48:37.717Z,25.02
2023-08-17T16:51:41.142Z,25.31
2023-08-17T16:54:47.383Z,25.06
2023-08-17T16:57:50.466Z,25.03
2023-08-17T17:00:53.260Z,24.87
2023-08-17T17:03:55.729Z,24.65
2023-08-17T17:06:58.134Z,24.63
2023-08-17T17:10:00.504Z,24.36
2023-08-17T17:13:02.926Z,24.40
2023-08-17T17:16:05.428Z,24.59
2023-08-17T17:19:07.793Z,24.52
2023-08-17T17:22:10.179Z,24.40
2023-08-17T17:25:12.612Z,24.37
2023-08-17T17:28:14.995Z,24.30
2023-08-17T17:31:17.457Z,24.10
2023-08-17T17:34:20.701Z,24.25
2023-08-17T17:37:23.369Z,23.84
2023-08-17T17:40:25.788Z,23.76
2023-08-17T17:43:28.354Z,23.88
2023-08-17T17:46:30.961Z,23.63
2023-08-17T17:49:33.335Z,23.67
2023-08-17T17:52:35.844Z,23.43
2023-08-17T17:55:38.454Z,23.44
2023-08-17T17:58:40.885Z,23.39
2023-08-17T18:01:43.468Z,23.26
2023-08-17T18:04:45.898Z,23.17
2023-08-17T18:07:48.392Z,23.17
2023-08-17T18:10:51.052Z,22.97
2023-08-17T18:13:53.707Z,23.01
2023-08-17T18:16:56.115Z,22.84
2023-08-17T18:19:58.578Z,22.85
2023-08-17T18:23:01.030Z,22.86
2023-08-17T18:26:03.609Z,22.78
2023-08-17T18:29:06.601Z,22.59
2023-08-17T18:32:08.982Z,22.63
2023-08-17T18:35:11.622Z,22.62
2023-08-17T18:38:14.022Z,22.57
2023-08-17T18:41:16.854Z,22.42
2023-08-17T18:44:19.331Z,22.44
2023-08-17T18:47:23.000Z,22.44
2023-08-17T18:50:28.739Z,22.28
2023-08-17T18:53:31.141Z,22.35
2023-08-17T18:56:33.559Z,22.32
2023-08-17T18:59:36.207Z,22.50
2023-08-17T19:02:41.693Z,22.54
2023-08-17T19:05:44.231Z,22.64
2023-08-17T19:08:46.632Z,22.49
2023-08-17T19:11:49.031Z,22.35
2023-08-17T19:14:51.448Z,22.18
2023-08-17T19:17:53.891Z,22.18
2023-08-17T19:20:56.261Z,22.19
2023-08-17T19:23:58.651Z,22.17
2023-08-17T19:27:01.375Z,22.14
2023-08-17T19:30:04.332Z,22.15
2023-08-17T19:33:07.188Z,22.16
2023-08-17T19:36:09.859Z,22.15
2023-08-17T19:39:12.506Z,22.21
2023-08-17T19:42:14.923Z,22.36
2023-08-17T19:45:19.131Z,22.43
2023-08-17T19:48:21.666Z,22.40
2023-08-17T19:51:24.479Z,22.13
2023-08-17T19:54:26.922Z,22.08
2023-08-17T19:57:30.632Z,22.15
2023-08-17T20:00:33.349Z,22.06
2023-08-17T20:03:36.140Z,21.83
2023-08-17T20:06:39.033Z,21.80
2023-08-17T20:09:41.743Z,21.83
2023-08-17T20:12:44.190Z,21.92
2023-08-17T20:15:46.743Z,21.80
2023-08-17T20:18:49.533Z,21.61
2023-08-17T20:21:51.941Z,21.46
2023-08-17T20:24:54.628Z,21.41
2023-08-17T20:27:57.258Z,21.24
2023-08-17T20:31:00.057Z,21.27
2023-08-17T20:34:02.519Z,21.53
2023-08-17T20:37:05.175Z,21.21
2023-08-17T20:40:09.300Z,21.36
2023-08-17T20:43:12.239Z,21.27
2023-08-17T20:46:14.785Z,21.20
2023-08-17T20:49:17.317Z,21.24
2023-08-17T20:52:19.753Z,21.26
2023-08-17T20:55:23.518Z,21.25
2023-08-17T20:58:25.894Z,21.31
2023-08-17T21:01:28.332Z,21.28
2023-08-17T21:04:30.750Z,21.32
2023-08-17T21:07:33.438Z,21.16
2023-08-17T21:10:36.365Z,21.11
2023-08-17T21:13:39.332Z,21.16
2023-08-17T21:16:41.851Z,21.19
2023-08-17T21:19:44.839Z,21.33
2023-08-17T21:22:51.359Z,21.22
2023-08-17T21:25:53.811Z,21.19
2023-08-17T21:28:56.175Z,21.17
2023-08-17T21:31:58.520Z,21.12
2023-08-17T21:35:00.858Z,21.15
2023-08-17T21:38:04.596Z,21.26
2023-08-17T21:41:07.083Z,21.11
2023-08-17T21:44:09.520Z,21.03
2023-08-17T21:47:11.911Z,20.96
2023-08-17T21:50:14.297Z,20.92
2023-08-17T21:53:16.889Z,20.79
2023-08-17T21:56:19.291Z,20.90
2023-08-17T21:59:21.679Z,21.18
2023-08-17T22:02:24.066Z,21.09
2023-08-17T22:05:26.411Z,21.18
2023-08-17T22:08:28.752Z,21.13
2023-08-17T22:11:31.112Z,20.92
2023-08-17T22:14:33.515Z,20.76
2023-08-17T22:17:35.932Z,20.75
2023-08-17T22:20:41.323Z,20.60
2023-08-17T22:23:43.930Z,20.52
2023-08-17T22:26:46.318Z,20.58
2023-08-17T22:29:48.691Z,20.70
2023-08-17T22:32:51.136Z,20.33
2023-08-17T22:35:53.547Z,20.49
2023-08-17T22:38:56.059Z,20.36
2023-08-17T22:41:58.497Z,20.40
2023-08-17T22:45:00.893Z,20.73
2023-08-17T22:48:03.499Z,20.65
2023-08-17T22:51:05.912Z,20.53
2023-08-17T22:54:11.705Z,20.64
2023-08-17T22:57:14.061Z,20.53
2023-08-17T23:00:16.546Z,20.46
2023-08-17T23:03:18.930Z,20.46
2023-08-17T23:06:21.477Z,20.33
2023-08-17T23:09:23.914Z,20.33
2023-08-17T23:12:26.266Z,20.30
2023-08-17T23:15:28.986Z,20.31
2023-08-17T23:18:31.465Z,20.38
2023-08-17T23:21:33.831Z,20.33
2023-08-17T23:24:38.517Z,20.33
2023-08-17T23:27:41.310Z,20.14
2023-08-17T23:30:43.768Z,20.19
2023-08-17T23:33:46.152Z,20.06
2023-08-17T23:36:48.569Z,20.08
2023-08-17T23:39:51.022Z,19.74
2023-08-17T23:42:53.534Z,19.90
2023-08-17T23:45:55.967Z,19.67
2023-08-17T23:48:58.445Z,19.60
2023-08-17T23:52:00.885Z,19.86
2023-08-17T23:55:04.450Z,19.92
2023-08-17T23:58:06.864Z,19.89
